createdAt,value
2023-01-06T00:00:21.362Z,9.55
2023-01-06T00:02:47.187Z,6.00
2023-01-06T00:05:13.386Z,4.18
2023-01-06T00:07:39.129Z,3.33
2023-01-06T00:10:05.254Z,5.55
2023-01-06T00:12:31.017Z,6.25
2023-01-06T00:14:57.683Z,4.63
2023-01-06T00:17:23.759Z,6.95
2023-01-06T00:19:49.542Z,8.73
2023-01-06T00:22:15.280Z,5.63
2023-01-06T00:24:41.101Z,8.02
2023-01-06T00:27:06.816Z,5.95
2023-01-06T00:29:32.618Z,6.32
2023-01-06T00:31:59.777Z,5.97
2023-01-06T00:34:25.677Z,4.22
2023-01-06T00:36:51.427Z,5.25
2023-01-06T00:39:17.227Z,4.78
2023-01-06T00:42:02.142Z,8.32
2023-01-06T00:44:27.938Z,3.10
2023-01-06T00:46:53.691Z,11.00
2023-01-06T00:49:19.487Z,8.73
2023-01-06T00:51:45.315Z,5.57
2023-01-06T00:54:12.092Z,8.18
2023-01-06T00:56:38.481Z,6.63
2023-01-06T00:59:04.933Z,6.13
2023-01-06T01:01:31.344Z,7.00
2023-01-06T01:03:57.119Z,7.70
2023-01-06T01:06:22.849Z,6.78
2023-01-06T01:08:52.246Z,6.78
2023-01-06T01:11:36.693Z,4.22
2023-01-06T01:14:02.584Z,6.82
2023-01-06T01:16:28.318Z,5.07
2023-01-06T01:18:54.067Z,3.42
2023-01-06T01:21:19.801Z,7.03
2023-01-06T01:23:45.577Z,5.72
2023-01-06T01:26:11.441Z,3.53
2023-01-06T01:28:37.154Z,6.20
2023-01-06T01:31:03.076Z,4.30
2023-01-06T01:33:29.421Z,5.20
2023-01-06T01:35:55.175Z,5.07
2023-01-06T01:38:21.183Z,5.72
2023-01-06T01:40:50.375Z,8.82
2023-01-06T01:43:16.513Z,5.57
2023-01-06T01:45:44.687Z,3.67
2023-01-06T01:48:15.870Z,8.65
2023-01-06T01:50:44.614Z,2.75
2023-01-06T01:53:14.787Z,3.67
2023-01-06T01:55:40.616Z,5.72
2023-01-06T01:58:06.344Z,3.72
2023-01-06T02:00:32.730Z,3.10
2023-01-06T02:02:58.841Z,2.90
2023-01-06T02:05:25.888Z,6.40
2023-01-06T02:07:52.453Z,4.72
2023-01-06T02:10:19.781Z,5.70
2023-01-06T02:12:46.656Z,4.07
2023-01-06T02:15:20.224Z,8.48
2023-01-06T02:18:04.653Z,6.88
2023-01-06T02:20:49.083Z,7.60
2023-01-06T02:23:30.104Z,4.45
2023-01-06T02:26:14.699Z,6.85
2023-01-06T02:29:00.775Z,5.80
2023-01-06T02:31:35.391Z,4.63
2023-01-06T02:34:21.482Z,5.20
2023-01-06T02:36:47.191Z,7.60
2023-01-06T02:39:25.114Z,5.18
2023-01-06T02:41:56.157Z,4.78
2023-01-06T02:44:31.556Z,4.47
2023-01-06T02:47:13.470Z,3.97
2023-01-06T02:49:57.778Z,6.35
2023-01-06T02:52:29.543Z,6.03
2023-01-06T02:55:01.955Z,7.45
2023-01-06T02:57:43.792Z,5.68
2023-01-06T03:00:15.126Z,4.57
2023-01-06T03:02:42.756Z,5.05
2023-01-06T03:05:10.613Z,7.30
2023-01-06T03:07:37.544Z,7.15
2023-01-06T03:10:04.441Z,8.00
2023-01-06T03:12:32.914Z,5.95
2023-01-06T03:14:58.780Z,10.52
2023-01-06T03:17:24.753Z,5.38
2023-01-06T03:19:50.665Z,9.15
2023-01-06T03:22:16.627Z,5.55
2023-01-06T03:24:42.710Z,8.52
2023-01-06T03:27:08.664Z,7.57
2023-01-06T03:29:34.605Z,5.18
2023-01-06T03:32:00.306Z,5.80
2023-01-06T03:34:26.002Z,7.85
2023-01-06T03:36:54.743Z,6.90
2023-01-06T03:39:26.379Z,9.68
2023-01-06T03:42:36.475Z,7.38
2023-01-06T03:45:24.814Z,5.78
2023-01-06T03:47:58.420Z,6.70
2023-01-06T03:50:34.657Z,8.43
2023-01-06T03:53:12.596Z,4.60
2023-01-06T03:55:40.032Z,7.03
2023-01-06T03:58:06.319Z,5.57
2023-01-06T04:00:35.297Z,6.45
2023-01-06T04:03:01.230Z,3.78
2023-01-06T04:05:27.793Z,9.18
2023-01-06T04:07:53.968Z,4.88
2023-01-06T04:10:21.142Z,11.07
2023-01-06T04:12:47.322Z,6.88
2023-01-06T04:15:13.054Z,6.20
2023-01-06T04:17:39.371Z,6.85
2023-01-06T04:20:06.348Z,10.40
2023-01-06T04:22:32.077Z,13.77
2023-01-06T04:24:57.806Z,18.50
2023-01-06T04:27:23.549Z,9.23
2023-01-06T04:29:49.293Z,8.50
2023-01-06T04:32:15.069Z,12.15
2023-01-06T04:34:40.813Z,7.97
2023-01-06T04:37:06.543Z,9.85
2023-01-06T04:39:32.264Z,8.88
2023-01-06T04:41:58.013Z,9.05
2023-01-06T04:44:24.510Z,15.07
2023-01-06T04:46:50.229Z,9.45
2023-01-06T04:49:16.184Z,7.72
2023-01-06T04:51:41.959Z,14.02
2023-01-06T04:54:07.825Z,6.68
2023-01-06T04:56:33.630Z,11.32
2023-01-06T04:58:59.419Z,10.05
2023-01-06T05:01:25.588Z,9.27
2023-01-06T05:03:51.509Z,9.40
2023-01-06T05:06:18.019Z,9.68
2023-01-06T05:08:44.276Z,10.48
2023-01-06T05:11:19.697Z,9.68
2023-01-06T05:13:45.423Z,9.02
2023-01-06T05:16:16.455Z,9.93
2023-01-06T05:18:42.656Z,6.45
2023-01-06T05:21:08.475Z,15.43
2023-01-06T05:23:35.342Z,8.38
2023-01-06T05:26:01.073Z,14.73
2023-01-06T05:28:28.189Z,14.85
2023-01-06T05:30:58.249Z,10.50
2023-01-06T05:33:30.943Z,11.90
2023-01-06T05:35:59.840Z,8.52
2023-01-06T05:38:34.052Z,8.10
2023-01-06T05:43:44.144Z,7.22
2023-01-06T05:46:11.218Z,9.50
2023-01-06T05:48:38.767Z,12.00
2023-01-06T05:53:52.036Z,14.75
2023-01-06T06:01:41.653Z,11.70
2023-01-06T06:04:08.836Z,5.93
2023-01-06T06:06:35.760Z,10.30
2023-01-06T06:09:05.020Z,10.32
2023-01-06T06:11:36.158Z,10.82
2023-01-06T06:16:45.622Z,7.60
2023-01-06T06:25:29.979Z,11.20
2023-01-06T06:28:06.345Z,9.52
2023-01-06T07:38:49.978Z,11.60
2023-01-06T11:40:59.177Z,9.75
2023-01-06T11:43:28.330Z,8.68
2023-01-06T11:45:56.787Z,7.28
2023-01-06T11:48:46.067Z,8.30
2023-01-06T11:51:12.398Z,6.97
2023-01-06T11:53:39.242Z,9.43
2023-01-06T11:56:11.049Z,7.57
2023-01-06T11:58:42.282Z,4.57
2023-01-06T12:01:29.107Z,4.95
2023-01-06T12:04:01.423Z,5.55
2023-01-06T12:06:39.831Z,4.05
2023-01-06T12:09:15.619Z,4.85
2023-01-06T12:11:49.509Z,4.97
2023-01-06T12:14:28.435Z,4.20
2023-01-06T12:16:55.122Z,6.50
2023-01-06T12:19:25.678Z,4.90
2023-01-06T12:21:53.005Z,7.18
2023-01-06T12:24:19.557Z,8.18
2023-01-06T12:26:45.635Z,3.80
2023-01-06T12:29:15.472Z,6.43
2023-01-06T12:31:50.650Z,4.70
2023-01-06T12:34:22.120Z,5.15
2023-01-06T12:37:06.753Z,4.40
2023-01-06T12:39:32.483Z,2.72
2023-01-06T12:42:21.457Z,3.80
2023-01-06T12:44:50.281Z,2.70
2023-01-06T12:47:18.915Z,5.15
2023-01-06T12:49:59.698Z,3.20
2023-01-06T12:52:34.174Z,4.18
2023-01-06T12:55:00.744Z,4.95
2023-01-06T12:57:41.151Z,3.03
2023-01-06T13:00:27.338Z,2.88
2023-01-06T13:03:06.186Z,1.88
2023-01-06T13:05:47.537Z,2.25
2023-01-06T13:08:37.941Z,4.45
2023-01-06T13:14:30.411Z,2.17
2023-01-06T13:17:00.449Z,3.92
2023-01-06T13:19:41.123Z,2.20
2023-01-06T13:25:11.675Z,3.75
2023-01-06T13:30:34.361Z,3.42
2023-01-06T13:33:03.289Z,4.07
2023-01-06T13:35:40.731Z,1.03
2023-01-06T13:38:34.794Z,3.30
2023-01-06T13:41:02.059Z,4.20
2023-01-06T13:43:29.180Z,1.73
2023-01-06T13:46:08.351Z,1.58
2023-01-06T13:48:37.894Z,7.33
2023-01-06T13:51:05.252Z,2.90
2023-01-06T13:53:39.011Z,5.03
2023-01-06T13:56:23.975Z,1.23
2023-01-06T13:58:51.046Z,1.27
2023-01-06T14:01:17.586Z,1.13
2023-01-06T14:03:44.466Z,2.53
2023-01-06T14:06:22.548Z,0.95
2023-01-06T14:09:38.788Z,4.07
2023-01-06T14:12:09.323Z,1.30
2023-01-06T14:14:38.021Z,1.05
2023-01-06T14:17:07.252Z,1.52
2023-01-06T14:19:36.200Z,1.88
2023-01-06T14:22:21.374Z,3.95
2023-01-06T14:24:49.307Z,0.88
2023-01-06T14:27:15.276Z,4.05
2023-01-06T14:29:45.265Z,1.77
2023-01-06T14:32:13.996Z,2.45
2023-01-06T14:34:51.514Z,3.78
2023-01-06T14:37:19.245Z,1.50
2023-01-06T14:39:47.096Z,2.78
2023-01-06T14:42:17.338Z,1.80
2023-01-06T14:44:51.922Z,1.67
2023-01-06T14:47:20.736Z,0.95
2023-01-06T14:49:54.793Z,1.92
2023-01-06T14:55:09.425Z,4.35
2023-01-06T14:57:36.494Z,1.15
2023-01-06T15:00:15.553Z,2.05
2023-01-06T15:02:48.073Z,0.98
2023-01-06T15:05:34.371Z,1.10
2023-01-06T15:08:00.260Z,5.20
2023-01-06T15:10:27.273Z,1.35
2023-01-06T15:12:57.154Z,1.67
2023-01-06T15:15:24.750Z,2.38
2023-01-06T15:17:51.531Z,0.88
2023-01-06T15:20:17.650Z,1.10
2023-01-06T15:22:49.143Z,1.90
2023-01-06T15:25:20.561Z,0.88
2023-01-06T15:27:49.134Z,2.10
2023-01-06T15:30:17.634Z,2.10
2023-01-06T15:32:44.351Z,1.50
2023-01-06T15:35:15.965Z,1.40
2023-01-06T15:38:14.538Z,1.48
2023-01-06T15:40:40.767Z,4.00
2023-01-06T15:43:07.458Z,1.60
2023-01-06T15:45:34.103Z,3.67
2023-01-06T15:48:09.350Z,0.85
2023-01-06T15:50:37.330Z,1.80
2023-01-06T15:53:06.858Z,1.42
2023-01-06T15:55:35.020Z,0.88
2023-01-06T15:58:01.009Z,0.73
2023-01-06T16:00:29.700Z,3.83
2023-01-06T16:02:55.624Z,0.93
2023-01-06T16:05:31.738Z,2.65
2023-01-06T16:08:02.171Z,1.42
2023-01-06T16:10:29.249Z,1.52
2023-01-06T16:13:14.252Z,4.75
2023-01-06T16:16:03.889Z,11.52
2023-01-06T16:18:37.522Z,2.08
2023-01-06T16:21:12.699Z,0.73
2023-01-06T16:23:39.188Z,1.38
2023-01-06T16:26:08.948Z,3.25
2023-01-06T16:28:36.770Z,1.90
2023-01-06T16:31:03.876Z,1.25
2023-01-06T16:33:40.673Z,1.80
2023-01-06T16:36:11.265Z,4.65
2023-01-06T16:38:43.629Z,2.25
2023-01-06T16:41:17.088Z,2.75
2023-01-06T16:43:43.807Z,1.80
2023-01-06T16:46:13.774Z,2.03
2023-01-06T16:48:40.100Z,1.92
2023-01-06T16:51:11.558Z,2.60
2023-01-06T16:53:37.450Z,2.38
2023-01-06T16:56:04.248Z,2.42
2023-01-06T16:58:32.232Z,2.08
2023-01-06T17:01:00.588Z,1.48
2023-01-06T17:03:30.588Z,5.65
2023-01-06T17:05:57.015Z,2.10
2023-01-06T17:08:36.297Z,3.75
2023-01-06T17:11:10.026Z,2.97
2023-01-06T17:13:36.236Z,2.22
2023-01-06T17:16:26.520Z,1.98
2023-01-06T17:18:56.451Z,1.30
2023-01-06T17:21:27.865Z,2.60
2023-01-06T17:23:55.754Z,2.17
2023-01-06T17:26:21.888Z,2.60
2023-01-06T17:28:48.873Z,4.53
2023-01-06T17:31:16.754Z,3.35
2023-01-06T17:33:44.053Z,3.30
2023-01-06T17:36:32.973Z,3.08
2023-01-06T17:39:31.387Z,3.35
2023-01-06T17:42:06.403Z,3.42
2023-01-06T17:44:46.684Z,5.43
2023-01-06T17:47:26.491Z,4.30
2023-01-06T17:49:57.360Z,2.53
2023-01-06T17:52:31.192Z,3.88
2023-01-06T17:55:17.553Z,5.25
2023-01-06T17:57:46.209Z,3.03
2023-01-06T18:00:23.730Z,2.63
2023-01-06T18:03:01.020Z,1.98
2023-01-06T18:05:26.806Z,3.28
2023-01-06T18:08:10.168Z,2.95
2023-01-06T18:10:37.563Z,2.78
2023-01-06T18:13:17.656Z,4.07
2023-01-06T18:15:44.668Z,3.20
2023-01-06T18:18:15.050Z,2.88
2023-01-06T18:20:44.330Z,2.80
2023-01-06T18:23:15.550Z,3.90
2023-01-06T18:25:41.563Z,2.72
2023-01-06T18:28:14.112Z,7.35
2023-01-06T18:30:39.992Z,2.63
2023-01-06T18:33:11.878Z,3.63
2023-01-06T18:35:38.448Z,4.20
2023-01-06T18:38:04.974Z,4.35
2023-01-06T18:40:33.808Z,4.45
2023-01-06T18:43:01.493Z,6.13
2023-01-06T18:45:27.360Z,5.15
2023-01-06T18:47:58.744Z,5.47
2023-01-06T18:50:26.471Z,6.70
2023-01-06T18:52:53.616Z,4.68
2023-01-06T18:55:22.805Z,3.85
2023-01-06T18:58:13.239Z,4.50
2023-01-06T19:00:51.594Z,2.95
2023-01-06T19:03:31.331Z,3.47
2023-01-06T19:06:26.159Z,3.63
2023-01-06T19:08:52.062Z,3.55
2023-01-06T19:11:20.100Z,2.60
2023-01-06T19:13:46.422Z,3.22
2023-01-06T19:16:31.090Z,4.50
2023-01-06T19:19:08.878Z,2.20
2023-01-06T19:21:35.472Z,3.97
2023-01-06T19:24:07.391Z,3.78
2023-01-06T19:26:37.616Z,3.55
2023-01-06T19:29:06.789Z,5.25
2023-01-06T19:31:32.739Z,4.68
2023-01-06T19:34:00.127Z,5.85
2023-01-06T19:36:39.727Z,6.20
2023-01-06T19:39:23.077Z,4.70
2023-01-06T19:41:50.869Z,3.22
2023-01-06T19:44:16.995Z,4.40
2023-01-06T19:46:47.162Z,2.75
2023-01-06T19:49:21.474Z,11.45
2023-01-06T19:51:48.379Z,5.30
2023-01-06T19:54:20.389Z,3.45
2023-01-06T19:56:46.683Z,4.45
2023-01-06T19:59:12.516Z,3.83
2023-01-06T20:01:38.639Z,6.60
2023-01-06T20:04:11.109Z,6.15
2023-01-06T20:06:36.978Z,6.88
2023-01-06T20:09:03.078Z,5.65
2023-01-06T20:11:29.048Z,6.75
2023-01-06T20:13:55.011Z,4.03
2023-01-06T20:16:21.022Z,4.55
2023-01-06T20:18:47.731Z,4.18
2023-01-06T20:21:13.486Z,5.05
2023-01-06T20:23:39.331Z,9.43
2023-01-06T20:26:05.127Z,5.38
2023-01-06T20:28:31.035Z,7.28
2023-01-06T20:30:56.922Z,4.95
2023-01-06T20:33:22.756Z,7.25
2023-01-06T20:35:48.531Z,5.88
2023-01-06T20:38:14.396Z,5.22
2023-01-06T20:40:40.429Z,6.75
2023-01-06T20:43:06.685Z,7.05
2023-01-06T20:45:32.733Z,10.68
2023-01-06T20:47:58.971Z,7.50
2023-01-06T20:50:27.041Z,7.75
2023-01-06T20:52:53.157Z,5.15
2023-01-06T20:55:19.141Z,5.18
2023-01-06T20:57:44.904Z,6.53
2023-01-06T21:00:11.427Z,5.38
2023-01-06T21:02:37.533Z,5.07
2023-01-06T21:05:03.983Z,5.85
2023-01-06T21:07:29.778Z,4.90
2023-01-06T21:09:56.243Z,4.95
2023-01-06T21:12:22.059Z,5.93
2023-01-06T21:14:47.927Z,5.30
2023-01-06T21:17:14.035Z,7.03
2023-01-06T21:19:39.918Z,7.93
2023-01-06T21:22:05.703Z,6.22
2023-01-06T21:24:31.574Z,4.68
2023-01-06T21:26:57.301Z,8.57
2023-01-06T21:29:23.127Z,5.82
2023-01-06T21:31:48.904Z,4.68
2023-01-06T21:34:14.820Z,5.97
2023-01-06T21:36:40.665Z,6.57
2023-01-06T21:39:10.208Z,5.05
2023-01-06T21:41:54.686Z,4.97
2023-01-06T21:44:20.598Z,4.55
2023-01-06T21:46:46.504Z,5.72
2023-01-06T21:49:12.353Z,5.47
2023-01-06T21:51:38.749Z,7.60
2023-01-06T21:54:04.921Z,5.55
2023-01-06T21:56:39.386Z,7.15
2023-01-06T21:59:06.663Z,6.30
2023-01-06T22:01:32.704Z,5.97
2023-01-06T22:03:58.623Z,7.15
2023-01-06T22:06:25.503Z,6.20
2023-01-06T22:08:52.732Z,7.40
2023-01-06T22:11:18.618Z,4.93
2023-01-06T22:13:44.754Z,5.75
2023-01-06T22:16:10.724Z,5.65
2023-01-06T22:18:36.860Z,6.43
2023-01-06T22:21:03.028Z,8.02
2023-01-06T22:23:30.029Z,6.50
2023-01-06T22:25:55.819Z,5.90
2023-01-06T22:28:22.530Z,5.35
2023-01-06T22:30:50.873Z,7.28
2023-01-06T22:33:17.748Z,5.65
2023-01-06T22:35:43.870Z,5.53
2023-01-06T22:38:18.501Z,11.00
2023-01-06T22:40:45.886Z,6.07
2023-01-06T22:43:11.663Z,7.40
2023-01-06T22:45:37.450Z,7.32
2023-01-06T22:48:03.242Z,6.40
2023-01-06T22:50:28.961Z,5.80
2023-01-06T22:52:54.956Z,7.47
2023-01-06T22:55:20.843Z,7.40
2023-01-06T22:57:46.672Z,6.63
2023-01-06T23:00:14.624Z,6.70
2023-01-06T23:02:40.955Z,8.18
2023-01-06T23:05:07.263Z,6.78
2023-01-06T23:07:40.036Z,6.18
2023-01-06T23:10:06.618Z,6.40
2023-01-06T23:12:34.219Z,5.82
2023-01-06T23:14:59.989Z,7.38
2023-01-06T23:17:25.794Z,6.97
2023-01-06T23:19:51.651Z,7.68
2023-01-06T23:22:17.394Z,9.00
2023-01-06T23:24:43.118Z,6.05
2023-01-06T23:27:08.835Z,6.13
2023-01-06T23:29:34.554Z,5.90
2023-01-06T23:32:00.280Z,5.75
2023-01-06T23:34:28.324Z,6.88
2023-01-06T23:36:54.267Z,5.03
2023-01-06T23:39:20.040Z,6.43
2023-01-06T23:41:45.785Z,5.82
2023-01-06T23:44:14.030Z,8.35
2023-01-06T23:46:39.890Z,5.47
2023-01-06T23:49:06.111Z,7.00
2023-01-06T23:51:32.160Z,6.35
2023-01-06T23:53:59.070Z,6.10
2023-01-06T23:56:25.773Z,6.75
2023-01-06T23:58:52.707Z,8.15
